Time;durP1;ratioP1;P1;durP2;ratioP2;P2;SDS_P1;SDS_P2;PMS_P1;PMS_P2;Temp;Humidity;BMP_temperature;BMP_pressure;BME280_temperature;BME280_humidity;BME280_pressure;Samples;Min_cycle;Max_cycle;Signal;HPM_P1;HPM_P2
2021/05/24 00:00:48;;;;;;;;;;;9.10;1.00;;;;;;5023542;28;19920;-70
2021/05/24 00:03:14;;;;;;;;;;;9.10;1.00;;;;;;5024678;28;20375;-67
2021/05/24 00:05:40;;;;;;;;;;;9.10;1.00;;;;;;5023024;28;19917;-69
2021/05/24 00:08:07;;;;;;;;;;;9.10;1.00;;;;;;5018381;28;20363;-68
2021/05/24 00:10:34;;;;;;;;;;;9.00;1.00;;;;;;5015271;28;21585;-69
2021/05/24 00:13:05;;;;;;;;;;;8.90;1.00;;;;;;5013117;28;20335;-70
2021/05/24 00:15:32;;;;;;;;;;;8.90;1.00;;;;;;5018313;28;19956;-69
2021/05/24 00:17:58;;;;;;;;;;;8.90;1.00;;;;;;5021216;28;19913;-67
2021/05/24 00:20:25;;;;;;;;;;;8.80;1.00;;;;;;5025039;28;19920;-70
2021/05/24 00:22:50;;;;;;;;;;;8.80;1.00;;;;;;5029030;28;19931;-69
2021/05/24 00:25:16;;;;;;;;;;;8.80;69.60;;;;;;5029715;28;20004;-69
2021/05/24 00:27:42;;;;;;;;;;;8.80;99.90;;;;;;5016143;28;20477;-69
2021/05/24 00:30:08;;;;;;;;;;;8.70;99.90;;;;;;5024155;28;20012;-68
2021/05/24 00:32:33;;;;;;;;;;;8.70;99.90;;;;;;5019253;28;20011;-68
2021/05/24 00:34:59;;;;;;;;;;;8.60;99.90;;;;;;5017398;28;20020;-68
2021/05/24 00:37:24;;;;;;;;;;;8.60;99.90;;;;;;5020783;28;19920;-68
2021/05/24 00:39:50;;;;;;;;;;;8.60;99.90;;;;;;5026685;28;20665;-68
2021/05/24 00:42:16;;;;;;;;;;;8.50;99.90;;;;;;5026203;28;19920;-68
2021/05/24 00:44:41;;;;;;;;;;;8.50;99.90;;;;;;5011463;28;19928;-68
2021/05/24 00:47:07;;;;;;;;;;;8.40;99.90;;;;;;5017791;28;19995;-71
2021/05/24 00:49:32;;;;;;;;;;;8.50;99.90;;;;;;5014981;28;19971;-68
2021/05/24 00:51:58;;;;;;;;;;;8.50;99.90;;;;;;5019058;28;20306;-69
2021/05/24 00:54:24;;;;;;;;;;;8.40;99.90;;;;;;5019669;28;20015;-68
2021/05/24 00:56:51;;;;;;;;;;;8.40;99.90;;;;;;5020665;28;19917;-69
2021/05/24 00:59:17;;;;;;;;;;;8.40;99.90;;;;;;5019499;28;19913;-70
2021/05/24 01:01:42;;;;;;;;;;;8.30;99.90;;;;;;5016100;28;19997;-70
2021/05/24 01:04:08;;;;;;;;;;;8.30;99.90;;;;;;5023985;28;20220;-68
2021/05/24 01:06:34;;;;;;;;;;;8.20;99.90;;;;;;5016874;28;19924;-69
2021/05/24 01:09:00;;;;;;;;;;;8.20;99.90;;;;;;5017150;28;19961;-69
2021/05/24 01:11:25;;;;;;;;;;;8.20;99.90;;;;;;5017161;28;19921;-69
2021/05/24 01:13:51;;;;;;;;;;;8.20;99.90;;;;;;5022577;28;19917;-70
2021/05/24 01:16:16;;;;;;;;;;;8.20;99.90;;;;;;5024499;28;19921;-69
2021/05/24 01:18:42;;;;;;;;;;;8.20;99.90;;;;;;5017624;28;19920;-68
2021/05/24 01:21:11;;;;;;;;;;;8.20;99.90;;;;;;5013881;28;19965;-69
2021/05/24 01:23:38;;;;;;;;;;;8.20;99.90;;;;;;5026083;28;20730;-70
2021/05/24 01:26:04;;;;;;;;;;;8.20;99.90;;;;;;5021096;28;19935;-68
2021/05/24 01:28:29;;;;;;;;;;;8.20;99.90;;;;;;5021239;28;19917;-68
2021/05/24 01:30:55;;;;;;;;;;;8.20;99.90;;;;;;5025989;28;19913;-69
2021/05/24 01:33:20;;;;;;;;;;;8.20;99.90;;;;;;5014021;28;19917;-67
2021/05/24 01:35:46;;;;;;;;;;;8.20;99.90;;;;;;5023462;28;19988;-70
2021/05/24 01:38:11;;;;;;;;;;;8.30;99.90;;;;;;5014786;28;19920;-71
2021/05/24 01:40:37;;;;;;;;;;;8.30;99.90;;;;;;5020405;28;19917;-70
2021/05/24 01:43:04;;;;;;;;;;;8.30;99.90;;;;;;5025938;28;19917;-68
2021/05/24 01:45:30;;;;;;;;;;;8.20;99.90;;;;;;5019594;28;19937;-68
2021/05/24 01:47:56;;;;;;;;;;;8.20;99.90;;;;;;5015415;28;20000;-70
2021/05/24 01:50:21;;;;;;;;;;;8.20;99.90;;;;;;5016424;28;19913;-69
2021/05/24 01:52:47;;;;;;;;;;;8.20;99.90;;;;;;5018125;28;19913;-68
2021/05/24 01:55:13;;;;;;;;;;;8.10;99.90;;;;;;5025514;28;19961;-68
2021/05/24 01:57:39;;;;;;;;;;;8.10;99.90;;;;;;5012596;28;19921;-68
2021/05/24 02:00:06;;;;;;;;;;;8.20;99.90;;;;;;5016016;28;19917;-71
2021/05/24 02:02:31;;;;;;;;;;;8.10;99.90;;;;;;5023621;28;20336;-69
2021/05/24 02:04:57;;;;;;;;;;;8.10;99.90;;;;;;5014550;28;19966;-68
2021/05/24 02:07:26;;;;;;;;;;;8.10;99.90;;;;;;5017567;28;19968;-68
2021/05/24 02:09:51;;;;;;;;;;;8.10;99.90;;;;;;5009036;28;19922;-68
2021/05/24 02:12:17;;;;;;;;;;;8.10;99.90;;;;;;5025542;28;19913;-69
2021/05/24 02:14:43;;;;;;;;;;;8.10;99.90;;;;;;5019627;28;19966;-68
2021/05/24 02:17:08;;;;;;;;;;;8.10;99.90;;;;;;5018838;28;19925;-68
2021/05/24 02:19:36;;;;;;;;;;;8.20;99.90;;;;;;5023293;28;19913;-68
2021/05/24 02:22:01;;;;;;;;;;;8.20;99.90;;;;;;5022017;28;20313;-67
2021/05/24 02:24:26;;;;;;;;;;;8.20;65.30;;;;;;5023581;28;19913;-69
2021/05/24 02:26:52;;;;;;;;;;;8.30;1.00;;;;;;5017486;28;19928;-68
2021/05/24 02:29:17;;;;;;;;;;;8.30;1.00;;;;;;5019400;28;20239;-68
2021/05/24 02:31:43;;;;;;;;;;;8.30;1.00;;;;;;4997248;28;19917;-69
2021/05/24 02:34:09;;;;;;;;;;;8.20;1.00;;;;;;5015832;28;19940;-69
2021/05/24 02:36:35;;;;;;;;;;;8.20;1.00;;;;;;5015023;28;20472;-69
2021/05/24 02:39:03;;;;;;;;;;;8.20;1.00;;;;;;5018717;28;19961;-68
2021/05/24 02:41:29;;;;;;;;;;;8.30;1.00;;;;;;5018108;28;19928;-69
2021/05/24 02:43:54;;;;;;;;;;;8.20;1.00;;;;;;5010966;28;20000;-68
2021/05/24 02:46:20;;;;;;;;;;;8.30;1.00;;;;;;5020791;28;20551;-66
2021/05/24 02:48:45;;;;;;;;;;;8.20;1.00;;;;;;5018964;28;20062;-69
2021/05/24 02:51:11;;;;;;;;;;;8.20;1.00;;;;;;5020295;28;19917;-68
2021/05/24 02:53:36;;;;;;;;;;;8.20;1.00;;;;;;5021488;28;19913;-67
2021/05/24 02:56:02;;;;;;;;;;;8.10;1.00;;;;;;5028758;28;19917;-68
2021/05/24 02:58:27;;;;;;;;;;;8.10;1.00;;;;;;5002199;28;19956;-67
2021/05/24 03:00:53;;;;;;;;;;;8.10;1.00;;;;;;5015473;28;19956;-69
2021/05/24 03:03:21;;;;;;;;;;;8.10;1.00;;;;;;5026656;28;19914;-69
2021/05/24 03:05:46;;;;;;;;;;;8.10;1.00;;;;;;5022051;28;20012;-67
2021/05/24 03:08:12;;;;;;;;;;;8.00;1.00;;;;;;5026666;28;20364;-69
2021/05/24 03:10:39;;;;;;;;;;;8.00;21.10;;;;;;5013298;28;19917;-69
2021/05/24 03:13:05;;;;;;;;;;;8.00;97.10;;;;;;5018387;28;19920;-69
2021/05/24 03:15:30;;;;;;;;;;;8.00;99.90;;;;;;5018994;28;19921;-69
2021/05/24 03:17:56;;;;;;;;;;;8.00;99.90;;;;;;5015929;28;20275;-70
2021/05/24 03:20:21;;;;;;;;;;;8.00;99.90;;;;;;5017916;28;19914;-68
2021/05/24 03:22:47;;;;;;;;;;;8.00;99.90;;;;;;5020152;28;19940;-68
2021/05/24 03:25:13;;;;;;;;;;;8.00;99.90;;;;;;5026380;28;19948;-69
2021/05/24 03:27:39;;;;;;;;;;;8.00;99.90;;;;;;5027364;28;19921;-71
2021/05/24 03:30:06;;;;;;;;;;;8.10;99.90;;;;;;5014072;28;19925;-68
2021/05/24 03:32:32;;;;;;;;;;;8.10;99.70;;;;;;5018690;28;19918;-68
2021/05/24 03:34:57;;;;;;;;;;;8.10;99.90;;;;;;5020885;28;19917;-69
2021/05/24 03:37:22;;;;;;;;;;;8.10;99.90;;;;;;5023401;28;19941;-69
2021/05/24 03:39:48;;;;;;;;;;;8.10;99.90;;;;;;5021207;28;20008;-68
2021/05/24 03:42:13;;;;;;;;;;;8.10;99.90;;;;;;5018404;28;20271;-71
2021/05/24 03:44:43;;;;;;;;;;;8.10;99.90;;;;;;5018894;28;19917;-70
2021/05/24 03:47:08;;;;;;;;;;;8.10;99.90;;;;;;5020444;28;19917;-70
2021/05/24 03:49:34;;;;;;;;;;;8.10;99.90;;;;;;5020202;28;20358;-69
2021/05/24 03:51:59;;;;;;;;;;;8.10;99.90;;;;;;5021689;28;19913;-69
2021/05/24 03:54:25;;;;;;;;;;;8.10;99.90;;;;;;5028109;28;20051;-69
2021/05/24 03:56:50;;;;;;;;;;;8.10;99.90;;;;;;5028653;28;19925;-70
2021/05/24 03:59:16;;;;;;;;;;;8.10;99.90;;;;;;5022665;28;19913;-71
2021/05/24 04:01:41;;;;;;;;;;;8.20;99.90;;;;;;5014555;28;19913;-71
2021/05/24 04:04:08;;;;;;;;;;;8.20;99.90;;;;;;5028021;28;19940;-70
2021/05/24 04:06:34;;;;;;;;;;;8.20;99.90;;;;;;5024996;28;20624;-71
2021/05/24 04:09:00;;;;;;;;;;;8.20;99.90;;;;;;5023762;28;20334;-70
2021/05/24 04:11:26;;;;;;;;;;;8.30;99.90;;;;;;5025557;28;19913;-70
2021/05/24 04:13:54;;;;;;;;;;;8.30;99.90;;;;;;5016931;28;19921;-70
2021/05/24 04:16:20;;;;;;;;;;;8.40;99.90;;;;;;5026582;28;20267;-69
2021/05/24 04:18:49;;;;;;;;;;;8.40;77.30;;;;;;5017566;28;20004;-69
2021/05/24 04:21:15;;;;;;;;;;;8.50;1.00;;;;;;5022227;28;19927;-69
2021/05/24 04:23:44;;;;;;;;;;;8.50;1.00;;;;;;5020213;28;20019;-68
2021/05/24 04:26:10;;;;;;;;;;;8.50;1.00;;;;;;5018972;28;19924;-69
2021/05/24 04:28:36;;;;;;;;;;;8.50;1.00;;;;;;5023109;28;19917;-68
2021/05/24 04:31:01;;;;;;;;;;;8.60;1.00;;;;;;5019622;28;19967;-67
2021/05/24 04:33:27;;;;;;;;;;;8.60;1.00;;;;;;5013259;28;20033;-68
2021/05/24 04:35:53;;;;;;;;;;;8.70;1.00;;;;;;5014159;28;19917;-68
2021/05/24 04:38:18;;;;;;;;;;;8.70;1.00;;;;;;5014428;28;20556;-68
2021/05/24 04:40:44;;;;;;;;;;;8.70;1.00;;;;;;5012407;28;19913;-70
2021/05/24 04:43:09;;;;;;;;;;;8.80;1.00;;;;;;5020222;28;19940;-69
2021/05/24 04:45:35;;;;;;;;;;;8.90;99.90;;;;;;5020805;28;19960;-70
2021/05/24 04:48:00;;;;;;;;;;;8.90;99.90;;;;;;5005155;28;19921;-70
2021/05/24 04:50:26;;;;;;;;;;;8.90;99.90;;;;;;5047976;22;19925;-74
2021/05/24 04:52:51;;;;;;;;;;;9.10;99.90;;;;;;5028650;28;19913;-72
2021/05/24 04:55:19;;;;;;;;;;;9.10;99.90;;;;;;5028939;28;19936;-72
2021/05/24 04:57:45;;;;;;;;;;;9.10;99.90;;;;;;5028705;28;19928;-72
2021/05/24 05:00:11;;;;;;;;;;;9.10;99.90;;;;;;5033344;28;19913;-74
2021/05/24 05:02:37;;;;;;;;;;;9.20;1.00;;;;;;5034212;28;20004;-74
2021/05/24 05:05:04;;;;;;;;;;;9.20;99.90;;;;;;5030898;28;19913;-72
2021/05/24 05:07:29;;;;;;;;;;;9.30;99.90;;;;;;5041570;28;19970;-73
2021/05/24 05:09:55;;;;;;;;;;;9.40;99.90;;;;;;5022254;28;20262;-73
2021/05/24 05:12:20;;;;;;;;;;;9.40;99.90;;;;;;5043085;28;20099;-73
2021/05/24 05:14:46;;;;;;;;;;;9.40;72.50;;;;;;5037518;28;19921;-74
2021/05/24 05:17:11;;;;;;;;;;;9.50;99.90;;;;;;5042818;28;20349;-73
2021/05/24 05:19:37;;;;;;;;;;;9.60;1.00;;;;;;5040868;28;20020;-73
2021/05/24 05:22:02;;;;;;;;;;;9.60;1.00;;;;;;5036067;28;19913;-72
2021/05/24 05:24:28;;;;;;;;;;;9.70;99.90;;;;;;5038548;28;19948;-73
2021/05/24 05:26:53;;;;;;;;;;;9.80;1.00;;;;;;5036869;28;20273;-74
2021/05/24 05:29:19;;;;;;;;;;;10.00;1.00;;;;;;5045710;28;19913;-71
2021/05/24 05:31:44;;;;;;;;;;;10.10;1.00;;;;;;5040468;28;20046;-74
2021/05/24 05:34:10;;;;;;;;;;;10.30;1.00;;;;;;5042309;28;20286;-74
2021/05/24 05:36:37;;;;;;;;;;;10.50;1.00;;;;;;5031729;28;19928;-74
2021/05/24 05:39:03;;;;;;;;;;;10.90;99.90;;;;;;5043523;28;19913;-74
2021/05/24 05:41:29;;;;;;;;;;;11.20;99.90;;;;;;5045329;28;19971;-72
2021/05/24 05:43:54;;;;;;;;;;;11.30;1.00;;;;;;5041248;28;20369;-75
2021/05/24 05:46:19;;;;;;;;;;;11.50;1.00;;;;;;5022785;28;19913;-73
2021/05/24 05:48:45;;;;;;;;;;;11.50;1.00;;;;;;5036421;28;19932;-73
2021/05/24 05:51:11;;;;;;;;;;;11.50;1.00;;;;;;5027706;28;20456;-72
2021/05/24 05:53:36;;;;;;;;;;;11.60;1.00;;;;;;5037630;28;19909;-74
2021/05/24 05:56:02;;;;;;;;;;;12.00;99.90;;;;;;5039015;28;19930;-73
2021/05/24 05:58:28;;;;;;;;;;;12.20;99.90;;;;;;5038220;28;19924;-71
2021/05/24 06:00:53;;;;;;;;;;;12.30;99.90;;;;;;5038114;28;20207;-73
2021/05/24 06:03:19;;;;;;;;;;;12.30;99.90;;;;;;5028201;28;20230;-73
2021/05/24 06:05:44;;;;;;;;;;;12.30;99.90;;;;;;5033314;28;20057;-73
2021/05/24 06:08:10;;;;;;;;;;;12.40;99.90;;;;;;5036428;28;19953;-73
2021/05/24 06:10:35;;;;;;;;;;;12.30;99.90;;;;;;5034473;28;19916;-72
2021/05/24 06:13:01;;;;;;;;;;;12.40;99.90;;;;;;5022371;28;19936;-73
2021/05/24 06:15:26;;;;;;;;;;;12.50;99.90;;;;;;5043806;28;20231;-73
2021/05/24 06:17:52;;;;;;;;;;;12.70;64.10;;;;;;5030169;28;19971;-73
2021/05/24 06:20:18;;;;;;;;;;;12.70;3.70;;;;;;5025629;28;20764;-69
2021/05/24 06:22:43;;;;;;;;;;;12.70;1.00;;;;;;5011592;28;20498;-71
2021/05/24 06:25:10;;;;;;;;;;;12.70;1.00;;;;;;5034326;28;20012;-73
2021/05/24 06:27:36;;;;;;;;;;;12.60;1.00;;;;;;5030567;28;19913;-71
2021/05/24 06:30:03;;;;;;;;;;;12.60;1.00;;;;;;5027531;28;19920;-73
2021/05/24 06:32:29;;;;;;;;;;;12.70;1.00;;;;;;5029065;28;19932;-72
2021/05/24 06:34:54;;;;;;;;;;;12.80;1.00;;;;;;5027449;28;20282;-72
2021/05/24 06:37:20;;;;;;;;;;;12.90;1.00;;;;;;5026801;28;19996;-73
2021/05/24 06:39:45;;;;;;;;;;;13.10;1.00;;;;;;5027120;28;20612;-72
2021/05/24 06:42:11;;;;;;;;;;;13.30;1.00;;;;;;5025629;28;19924;-70
2021/05/24 06:44:36;;;;;;;;;;;13.40;1.00;;;;;;5024055;28;19913;-73
2021/05/24 06:47:02;;;;;;;;;;;13.70;1.00;;;;;;5025189;28;19917;-73
2021/05/24 06:49:28;;;;;;;;;;;13.80;1.00;;;;;;5026514;28;19928;-71
2021/05/24 06:51:53;;;;;;;;;;;14.00;1.00;;;;;;5026090;28;20012;-73
2021/05/24 06:54:19;;;;;;;;;;;14.20;1.00;;;;;;5029376;28;19974;-74
2021/05/24 06:56:44;;;;;;;;;;;14.40;1.00;;;;;;5035184;28;19928;-74
2021/05/24 06:59:10;;;;;;;;;;;14.60;1.00;;;;;;5027760;28;19909;-74
2021/05/24 07:01:36;;;;;;;;;;;15.10;1.00;;;;;;5035705;28;20027;-73
2021/05/24 07:04:02;;;;;;;;;;;15.30;99.90;;;;;;5029794;28;19924;-75
2021/05/24 07:06:27;;;;;;;;;;;15.20;99.90;;;;;;5027345;28;19913;-73
2021/05/24 07:08:53;;;;;;;;;;;15.20;99.90;;;;;;5028013;28;19909;-72
2021/05/24 07:11:18;;;;;;;;;;;14.90;99.90;;;;;;5028847;28;19963;-73
2021/05/24 07:13:44;;;;;;;;;;;14.70;99.90;;;;;;5028809;28;19913;-73
2021/05/24 07:16:09;;;;;;;;;;;14.90;99.90;;;;;;5029088;28;20051;-73
2021/05/24 07:18:35;;;;;;;;;;;15.10;99.90;;;;;;5027463;28;20362;-73
2021/05/24 07:21:00;;;;;;;;;;;15.40;99.90;;;;;;5028930;28;19910;-72
2021/05/24 07:23:26;;;;;;;;;;;15.50;99.90;;;;;;5031768;28;19909;-74
2021/05/24 07:25:52;;;;;;;;;;;15.50;99.90;;;;;;5033358;28;20012;-73
2021/05/24 07:28:18;;;;;;;;;;;15.80;99.90;;;;;;5033333;28;19917;-73
2021/05/24 07:30:44;;;;;;;;;;;16.40;99.90;;;;;;5031917;28;19913;-73
2021/05/24 07:33:09;;;;;;;;;;;16.90;99.90;;;;;;5035433;28;19913;-74
2021/05/24 07:35:35;;;;;;;;;;;17.20;99.90;;;;;;5037893;28;20049;-72
2021/05/24 07:38:00;;;;;;;;;;;17.40;99.90;;;;;;5033533;28;20052;-71
2021/05/24 07:40:26;;;;;;;;;;;17.30;99.90;;;;;;5034487;28;19985;-73
2021/05/24 07:42:51;;;;;;;;;;;17.00;99.90;;;;;;5034210;28;19913;-72
2021/05/24 07:45:16;;;;;;;;;;;16.90;99.90;;;;;;5034675;28;19996;-74
2021/05/24 07:47:42;;;;;;;;;;;16.60;99.90;;;;;;5032140;28;19919;-72
2021/05/24 07:50:08;;;;;;;;;;;16.40;99.90;;;;;;5032477;28;19928;-72
2021/05/24 07:52:34;;;;;;;;;;;16.30;99.90;;;;;;5030953;28;20098;-73
2021/05/24 07:55:01;;;;;;;;;;;16.00;99.90;;;;;;5030138;28;20458;-72
2021/05/24 07:57:26;;;;;;;;;;;15.80;99.90;;;;;;5030370;28;19920;-74
2021/05/24 07:59:52;;;;;;;;;;;15.10;99.90;;;;;;5030270;28;19913;-72
2021/05/24 08:02:17;;;;;;;;;;;14.70;99.90;;;;;;5031116;28;19921;-71
2021/05/24 08:04:43;;;;;;;;;;;14.10;99.90;;;;;;5030990;28;19921;-72
2021/05/24 08:07:08;;;;;;;;;;;14.00;99.90;;;;;;5030099;28;20028;-72
2021/05/24 08:09:34;;;;;;;;;;;13.60;99.90;;;;;;5031491;28;20540;-72
2021/05/24 08:11:59;;;;;;;;;;;13.70;99.90;;;;;;5030803;28;19917;-73
2021/05/24 08:14:25;;;;;;;;;;;13.70;99.90;;;;;;5030234;28;20015;-74
2021/05/24 08:16:50;;;;;;;;;;;13.90;99.90;;;;;;5028847;28;19928;-73
2021/05/24 08:19:16;;;;;;;;;;;13.90;99.90;;;;;;5028066;28;19924;-72
2021/05/24 08:21:44;;;;;;;;;;;13.80;99.90;;;;;;5027545;28;19909;-73
2021/05/24 08:24:09;;;;;;;;;;;13.70;99.90;;;;;;5028086;28;20405;-73
2021/05/24 08:26:35;;;;;;;;;;;13.70;99.90;;;;;;5030730;28;19956;-72
2021/05/24 08:29:01;;;;;;;;;;;13.50;99.90;;;;;;5028573;28;19999;-73
2021/05/24 08:31:26;;;;;;;;;;;13.40;99.90;;;;;;5028768;28;19910;-72
2021/05/24 08:33:52;;;;;;;;;;;13.30;99.90;;;;;;5027497;28;20514;-71
2021/05/24 08:36:17;;;;;;;;;;;13.40;99.90;;;;;;5026630;28;20761;-73
2021/05/24 08:38:43;;;;;;;;;;;13.40;99.90;;;;;;5028613;28;20019;-72
2021/05/24 08:41:09;;;;;;;;;;;13.50;99.90;;;;;;5028370;28;19917;-72
2021/05/24 08:43:36;;;;;;;;;;;13.60;99.90;;;;;;5009250;28;20393;-72
2021/05/24 08:46:01;;;;;;;;;;;13.60;99.90;;;;;;5030059;28;19936;-73
2021/05/24 08:48:27;;;;;;;;;;;13.40;99.90;;;;;;5031946;28;19996;-72
2021/05/24 08:50:53;;;;;;;;;;;13.70;99.90;;;;;;5026188;28;19929;-73
2021/05/24 08:53:18;;;;;;;;;;;14.20;99.90;;;;;;5027580;28;20017;-72
2021/05/24 08:55:44;;;;;;;;;;;14.60;99.90;;;;;;5027888;28;19931;-72
2021/05/24 08:58:10;;;;;;;;;;;14.60;99.90;;;;;;5027855;28;19917;-72
2021/05/24 09:00:36;;;;;;;;;;;14.50;99.90;;;;;;5025316;28;19913;-71
2021/05/24 09:03:02;;;;;;;;;;;14.80;99.90;;;;;;5027150;28;20018;-73
2021/05/24 09:05:28;;;;;;;;;;;14.60;99.90;;;;;;5022449;28;20235;-74
2021/05/24 09:07:55;;;;;;;;;;;14.50;99.90;;;;;;5021013;28;19913;-73
2021/05/24 09:10:22;;;;;;;;;;;14.90;99.90;;;;;;5020173;28;19920;-73
2021/05/24 09:12:47;;;;;;;;;;;15.50;99.90;;;;;;5024700;28;19978;-71
2021/05/24 09:15:15;;;;;;;;;;;15.80;99.90;;;;;;5023185;28;19921;-71
2021/05/24 09:17:52;;;;;;;;;;;16.20;99.90;;;;;;5025252;28;19963;-72
2021/05/24 09:20:24;;;;;;;;;;;16.60;99.90;;;;;;5021186;28;20011;-73
2021/05/24 09:23:06;;;;;;;;;;;16.60;99.90;;;;;;5026681;28;20004;-73
2021/05/24 09:25:47;;;;;;;;;;;16.90;99.90;;;;;;5023318;28;19921;-72
2021/05/24 09:28:29;;;;;;;;;;;17.20;99.90;;;;;;5020799;28;19913;-74
2021/05/24 09:30:59;;;;;;;;;;;17.00;99.90;;;;;;5022892;28;20262;-74
2021/05/24 09:33:28;;;;;;;;;;;16.60;99.90;;;;;;5025462;28;19921;-73
2021/05/24 09:35:54;;;;;;;;;;;16.20;99.90;;;;;;5031877;28;19936;-73
2021/05/24 09:38:20;;;;;;;;;;;16.40;99.90;;;;;;5031954;28;20396;-73
2021/05/24 09:40:59;;;;;;;;;;;16.40;99.90;;;;;;5033736;28;19923;-73
2021/05/24 09:43:52;;;;;;;;;;;16.10;99.90;;;;;;5031193;28;19920;-73
2021/05/24 09:46:20;;;;;;;;;;;16.20;99.90;;;;;;5013871;28;20008;-71
2021/05/24 09:48:47;;;;;;;;;;;16.40;99.90;;;;;;5029071;28;19924;-72
2021/05/24 09:51:14;;;;;;;;;;;16.70;99.90;;;;;;5031631;28;19913;-72
2021/05/24 09:53:41;;;;;;;;;;;16.90;99.90;;;;;;5035455;28;19991;-70
2021/05/24 09:56:09;;;;;;;;;;;16.90;99.90;;;;;;5028945;28;19921;-72
2021/05/24 09:58:35;;;;;;;;;;;16.40;99.90;;;;;;5027397;28;19913;-74
2021/05/24 10:01:22;;;;;;;;;;;16.40;99.90;;;;;;5023719;28;19971;-73
2021/05/24 10:03:55;;;;;;;;;;;16.50;99.90;;;;;;5032676;28;20281;-71
2021/05/24 10:06:21;;;;;;;;;;;16.20;99.90;;;;;;5034974;28;20374;-74
2021/05/24 10:08:46;;;;;;;;;;;16.30;99.90;;;;;;5034028;28;19914;-73
2021/05/24 10:11:12;;;;;;;;;;;16.50;99.90;;;;;;5047551;28;19916;-73
2021/05/24 10:13:38;;;;;;;;;;;16.60;99.90;;;;;;5040304;28;19921;-72
2021/05/24 10:16:04;;;;;;;;;;;16.70;99.90;;;;;;5045572;28;19917;-73
2021/05/24 10:18:31;;;;;;;;;;;16.70;99.90;;;;;;5029382;28;19947;-71
2021/05/24 10:20:58;;;;;;;;;;;16.70;99.90;;;;;;5037361;28;20340;-73
2021/05/24 10:23:24;;;;;;;;;;;16.40;99.90;;;;;;5045432;28;20004;-74
2021/05/24 10:25:51;;;;;;;;;;;16.40;99.90;;;;;;5034770;28;20405;-72
2021/05/24 10:28:18;;;;;;;;;;;16.50;99.90;;;;;;5024602;28;19917;-74
2021/05/24 10:30:44;;;;;;;;;;;16.90;99.90;;;;;;5034815;28;19957;-73
2021/05/24 10:33:13;;;;;;;;;;;17.20;99.90;;;;;;5032913;28;19963;-72
2021/05/24 10:35:43;;;;;;;;;;;17.30;99.90;;;;;;5033224;28;19995;-73
2021/05/24 10:38:26;;;;;;;;;;;17.60;99.90;;;;;;5035961;28;19964;-71
2021/05/24 10:40:52;;;;;;;;;;;17.70;99.90;;;;;;5040651;28;19923;-74
2021/05/24 10:43:18;;;;;;;;;;;17.80;99.90;;;;;;5043289;28;20260;-73
2021/05/24 10:45:48;;;;;;;;;;;18.00;99.90;;;;;;5032982;28;20020;-74
2021/05/24 10:48:17;;;;;;;;;;;18.20;99.90;;;;;;5035541;28;19948;-74
2021/05/24 10:50:42;;;;;;;;;;;18.20;99.90;;;;;;5039363;28;20003;-74
2021/05/24 10:53:08;;;;;;;;;;;18.20;99.90;;;;;;5031746;28;20004;-73
2021/05/24 10:55:44;;;;;;;;;;;18.20;99.90;;;;;;5044416;28;19943;-73
2021/05/24 10:58:09;;;;;;;;;;;17.90;99.90;;;;;;5031166;28;20039;-74
2021/05/24 11:00:55;;;;;;;;;;;17.80;99.90;;;;;;5040293;28;20008;-73
2021/05/24 11:03:21;;;;;;;;;;;17.60;99.90;;;;;;5045593;22;20704;-64
2021/05/24 11:06:06;;;;;;;;;;;17.60;99.90;;;;;;5031428;28;19956;-66
2021/05/24 11:08:31;;;;;;;;;;;17.60;99.90;;;;;;5045055;28;19913;-65
2021/05/24 11:10:57;;;;;;;;;;;17.50;99.90;;;;;;5035884;28;19917;-65
2021/05/24 11:13:23;;;;;;;;;;;17.50;99.90;;;;;;5040337;28;19909;-64
2021/05/24 11:15:49;;;;;;;;;;;17.40;99.90;;;;;;5034206;28;19913;-67
2021/05/24 11:18:19;;;;;;;;;;;17.00;99.90;;;;;;5029478;28;19920;-66
2021/05/24 11:21:04;;;;;;;;;;;17.00;99.90;;;;;;5042570;28;19928;-64
2021/05/24 11:28:53;;;;;;;;;;;18.70;99.90;;;;;;5038367;28;20247;-66
2021/05/24 11:31:21;;;;;;;;;;;19.40;99.90;;;;;;5031616;28;19917;-66
2021/05/24 11:33:48;;;;;;;;;;;20.00;99.90;;;;;;5031595;28;19977;-65
2021/05/24 11:36:14;;;;;;;;;;;20.30;99.90;;;;;;5037408;28;19936;-66
2021/05/24 11:38:40;;;;;;;;;;;20.20;99.90;;;;;;5013694;28;19960;-64
2021/05/24 11:41:06;;;;;;;;;;;20.30;99.90;;;;;;5046451;28;19956;-66
2021/05/24 11:43:32;;;;;;;;;;;20.60;99.90;;;;;;5038519;28;19993;-66
2021/05/24 11:45:57;;;;;;;;;;;20.80;99.90;;;;;;5041703;28;20271;-66
2021/05/24 11:48:33;;;;;;;;;;;20.90;99.90;;;;;;5037110;28;19923;-66
2021/05/24 11:50:58;;;;;;;;;;;21.00;99.90;;;;;;5040713;28;19917;-65
2021/05/24 11:53:24;;;;;;;;;;;21.00;99.90;;;;;;5043628;28;19975;-65
2021/05/24 11:55:50;;;;;;;;;;;20.30;99.90;;;;;;5037919;28;19952;-67
2021/05/24 11:58:16;;;;;;;;;;;20.40;99.90;;;;;;5032661;28;19963;-66
2021/05/24 12:00:43;;;;;;;;;;;20.50;99.90;;;;;;5028091;28;20350;-66
2021/05/24 12:03:08;;;;;;;;;;;20.60;99.90;;;;;;5031973;28;19961;-66
2021/05/24 12:05:34;;;;;;;;;;;20.60;99.90;;;;;;5025507;28;19958;-65
2021/05/24 12:07:59;;;;;;;;;;;20.60;99.90;;;;;;5029650;28;20392;-66
2021/05/24 12:10:26;;;;;;;;;;;20.80;99.90;;;;;;5028829;28;20769;-67
2021/05/24 12:12:53;;;;;;;;;;;20.70;99.90;;;;;;5034555;28;19913;-68
2021/05/24 12:15:19;;;;;;;;;;;;;;;;;;5042086;28;20433;-67
2021/05/24 12:17:52;;;;;;;;;;;20.80;99.90;;;;;;5039051;28;20012;-67
2021/05/24 12:20:19;;;;;;;;;;;20.80;99.90;;;;;;5033484;28;19999;-67
2021/05/24 12:22:46;;;;;;;;;;;20.70;99.90;;;;;;5042318;28;19960;-67
2021/05/24 12:25:13;;;;;;;;;;;20.50;99.90;;;;;;5042378;28;19913;-68
2021/05/24 12:27:38;;;;;;;;;;;20.30;99.90;;;;;;5038343;28;19929;-67
2021/05/24 12:30:07;;;;;;;;;;;20.30;99.90;;;;;;5037575;28;19924;-67
2021/05/24 12:32:35;;;;;;;;;;;20.30;99.90;;;;;;5031842;28;19917;-66
2021/05/24 12:35:04;;;;;;;;;;;20.00;99.90;;;;;;5043001;28;20004;-67
2021/05/24 12:37:30;;;;;;;;;;;19.80;99.90;;;;;;5032146;28;20394;-67
2021/05/24 12:39:56;;;;;;;;;;;19.30;99.90;;;;;;5031831;28;19970;-66
2021/05/24 12:42:22;;;;;;;;;;;19.40;99.90;;;;;;5037857;28;19935;-69
2021/05/24 12:44:48;;;;;;;;;;;19.30;99.90;;;;;;5038830;28;19913;-66
2021/05/24 12:47:18;;;;;;;;;;;19.20;99.90;;;;;;5033097;28;19920;-66
2021/05/24 12:49:46;;;;;;;;;;;19.20;99.90;;;;;;5043609;28;19967;-66
2021/05/24 12:52:11;;;;;;;;;;;18.90;99.90;;;;;;5037235;28;19920;-66
2021/05/24 12:54:44;;;;;;;;;;;18.60;99.90;;;;;;5039133;28;20634;-67
2021/05/24 12:57:10;;;;;;;;;;;18.30;99.90;;;;;;5038026;28;19933;-65
2021/05/24 12:59:48;;;;;;;;;;;18.10;99.90;;;;;;5035480;28;19921;-66
2021/05/24 13:02:17;;;;;;;;;;;18.00;99.90;;;;;;5036523;28;19910;-66
2021/05/24 13:04:42;;;;;;;;;;;17.90;99.90;;;;;;5029358;28;19921;-66
2021/05/24 13:07:18;;;;;;;;;;;17.70;99.90;;;;;;5039461;28;20365;-66
2021/05/24 13:09:46;;;;;;;;;;;17.60;99.90;;;;;;5030469;28;19922;-66
2021/05/24 13:12:20;;;;;;;;;;;17.40;99.90;;;;;;5031320;28;20319;-66
2021/05/24 13:14:53;;;;;;;;;;;17.20;99.90;;;;;;5029925;28;20016;-66
2021/05/24 13:30:47;;;;;;;;;;;16.90;99.90;;;;;;5030718;28;20308;-66
2021/05/24 13:33:44;;;;;;;;;;;16.90;99.90;;;;;;5028538;28;20444;-66
2021/05/24 13:36:15;;;;;;;;;;;16.90;99.90;;;;;;4974749;28;19914;-66
2021/05/24 13:38:41;;;;;;;;;;;16.90;99.90;;;;;;5030092;28;19995;-66
2021/05/24 13:41:06;;;;;;;;;;;16.90;99.90;;;;;;5048424;28;19996;-66
2021/05/24 13:43:32;;;;;;;;;;;16.80;99.90;;;;;;5030670;28;20342;-66
2021/05/24 13:45:57;;;;;;;;;;;16.70;99.90;;;;;;5049089;28;19994;-66
2021/05/24 13:48:23;;;;;;;;;;;16.70;99.90;;;;;;5047721;28;20373;-65
2021/05/24 13:50:49;;;;;;;;;;;16.80;99.90;;;;;;5046956;28;20447;-67
2021/05/24 13:53:14;;;;;;;;;;;16.70;99.90;;;;;;5048879;28;20421;-65
2021/05/24 13:55:40;;;;;;;;;;;16.70;99.90;;;;;;5048300;28;19952;-67
2021/05/24 13:58:05;;;;;;;;;;;16.70;99.90;;;;;;5048834;28;19916;-67
2021/05/24 14:00:31;;;;;;;;;;;16.60;99.90;;;;;;5044541;28;19928;-65
2021/05/24 14:02:57;;;;;;;;;;;16.70;99.90;;;;;;5027679;28;19986;-67
2021/05/24 14:05:23;;;;;;;;;;;16.90;99.90;;;;;;5010248;28;20399;-67
2021/05/24 14:07:49;;;;;;;;;;;17.10;99.90;;;;;;5029187;28;19917;-66
2021/05/24 14:10:16;;;;;;;;;;;17.30;99.90;;;;;;5027764;28;19909;-66
2021/05/24 14:12:42;;;;;;;;;;;17.50;99.90;;;;;;5028862;28;20530;-66
2021/05/24 14:15:09;;;;;;;;;;;17.60;99.90;;;;;;5028359;28;20588;-66
2021/05/24 14:17:35;;;;;;;;;;;17.70;99.90;;;;;;5028237;28;19913;-66
2021/05/24 14:20:00;;;;;;;;;;;17.70;99.90;;;;;;5026456;28;19932;-66
2021/05/24 14:22:26;;;;;;;;;;;17.70;99.90;;;;;;5028113;28;19917;-66
2021/05/24 14:24:51;;;;;;;;;;;17.60;99.90;;;;;;5028279;28;19909;-66
2021/05/24 14:27:17;;;;;;;;;;;17.60;99.90;;;;;;5028328;28;19920;-66
2021/05/24 14:29:42;;;;;;;;;;;17.60;99.90;;;;;;5027940;28;19909;-66
2021/05/24 14:32:07;;;;;;;;;;;17.40;99.90;;;;;;5029380;28;20318;-66
2021/05/24 14:34:33;;;;;;;;;;;17.20;99.90;;;;;;5031247;28;19909;-66
2021/05/24 14:36:59;;;;;;;;;;;17.10;99.90;;;;;;5031862;28;20235;-66
2021/05/24 14:39:27;;;;;;;;;;;17.10;99.90;;;;;;5031522;28;19935;-66
2021/05/24 14:41:53;;;;;;;;;;;17.00;99.90;;;;;;5032352;28;20362;-65